ADDS METAR Data INFO
IDs: Format: Raw Decoded Include TAF

Data at: 1814 UTC 20 Jul 2018

KMFE 201753Z 15014G21KT 10SM CLR 37/22 A2994 RMK AO2 SLP135 T03670222 10372 20267 58005
KMFE 201653Z 17012KT 10SM CLR 36/23 A2995 RMK AO2 SLP141 T03560233
KMFE 201553Z 14017KT 10SM CLR 33/24 A2995 RMK AO2 SLP141 T03330244
KMFE 201453Z 15016G24KT 10SM CLR 32/25 A2995 RMK AO2 SLP141 T03170250 50011
KMFE 201353Z 15015G21KT 10SM FEW012 29/26 A2996 RMK AO2 SLP142 T02890256
KMFE 201253Z 15009KT 7SM CLR 28/26 A2994 RMK AO2 SLP137 T02780256
KMFE 201153Z 14007KT 7SM CLR 27/25 A2992 RMK AO2 SLP130 T02670250 10283 20267 53005
KMFE 201104Z 15007KT 7SM CLR 27/25 A2991 RMK AO2 T02670250
KMFE 201053Z AUTO 15008KT 7SM CLR 27/25 A2991 RMK AO2 SLP125 T02670250
KMFE 200953Z AUTO 15009KT 6SM BR CLR 27/25 A2991 RMK AO2 SLP124 T02720250
KMFE 200853Z AUTO 15008KT 6SM BR CLR 27/25 A2991 RMK AO2 SLP124 T02720250 56009
KMFE 200753Z AUTO 16008KT 7SM FEW019 28/25 A2991 RMK AO2 SLP126 T02780250
KMFE 200653Z AUTO 15012G18KT 9SM CLR 28/25 A2992 RMK AO2 SLP129 T02830250
KMFE 200553Z AUTO 15011KT 10SM CLR 28/25 A2993 RMK AO2 SLP133 T02830250 10361 20283 404000267 51012
KMFE 200453Z AUTO 14015KT 10SM CLR 29/25 A2993 RMK AO2 SLP132 T02890250
KMFE 200353Z 14014KT 10SM CLR 29/25 A2991 RMK AO2 SLP127 T02940250
KMFE 200253Z 14014KT 10SM CLR 30/23 A2990 RMK AO2 SLP122 T03000233 53019
KMFE 200153Z 15013KT 10SM CLR 32/23 A2988 RMK AO2 SLP115 T03170228
KMFE 200053Z 14015KT 10SM CLR 34/21 A2986 RMK AO2 SLP108 T03390211
KMFE 192353Z 13017KT 10SM CLR 36/22 A2984 RMK AO2 SLP102 T03610217 10400 20356 55003
KMFE 192253Z 15017KT 10SM CLR 37/22 A2984 RMK AO2 SLP102 T03720222
KMFE 192153Z 12018G28KT 10SM CLR 38/23 A2985 RMK AO2 PK WND 14028/2145 SLP104 T03830228
KMFE 192053Z 13015G23KT 10SM CLR 39/23 A2985 RMK AO2 SLP105 T03890228 58020
KMFE 191953Z 14018G23KT 10SM CLR 39/21 A2987 RMK AO2 SLP111 T03890206
KMFE 191853Z 14016G22KT 10SM CLR 39/20 A2989 RMK AO2 SLP119 T03890200
KMFE 191753Z 16014G21KT 10SM CLR 38/22 A2991 RMK AO2 SLP125 T03780217 10378 20267 58011
KMFE 191653Z 17012G21KT 10SM CLR 36/23 A2992 RMK AO2 SLP130 T03610228
KMFE 191553Z 16011KT 10SM CLR 33/24 A2994 RMK AO2 SLP136 T03330239
KMFE 191453Z 17012KT 10SM CLR 32/24 A2994 RMK AO2 SLP137 T03170244 51006
KMFE 191353Z 16012KT 10SM CLR 29/26 A2994 RMK AO2 SLP135 T02890256
KMFE 191253Z 14007KT 10SM FEW011 27/26 A2993 RMK AO2 SLP134 T02720256
KMFE 191153Z 15007KT 10SM CLR 27/25 A2992 RMK AO2 SLP131 T02670250 10278 20267 51001
KMFE 191101Z 15007KT 10SM FEW014 27/25 A2992 RMK AO2 T02670250
KMFE 191053Z AUTO 15007KT 10SM FEW014 27/25 A2992 RMK AO2 SLP129 T02720250
KMFE 191041Z AUTO 15008KT 10SM SCT014 27/25 A2992 RMK AO2 T02720250
KMFE 190953Z AUTO 15008KT 10SM OVC016 28/25 A2992 RMK AO2 SLP130 T02780250
KMFE 190853Z AUTO 16010G19KT 10SM BKN016 28/26 A2992 RMK AO2 SLP129 T02780256 56011
KMFE 190753Z AUTO 15011KT 9SM BKN015 28/25 A2993 RMK AO2 SLP131 T02780250
KMFE 190653Z AUTO 15010KT 9SM CLR 28/25 A2994 RMK AO2 SLP135 T02780250